Time;durP1;ratioP1;P1;durP2;ratioP2;P2;SDS_P1;SDS_P2;PMS_P1;PMS_P2;Temp;Humidity;BMP_temperature;BMP_pressure;BME280_temperature;BME280_humidity;BME280_pressure;Samples;Min_cycle;Max_cycle;Signal;HPM_P1;HPM_P2
2024/01/15 00:00:41;;;;;;;21.27;10.27;;;-0.60;99.90;;;;;;4987974;28;20196;-71
2024/01/15 00:03:06;;;;;;;21.20;12.63;;;-0.50;99.90;;;;;;4992522;28;20517;-71
2024/01/15 00:05:32;;;;;;;22.73;10.57;;;-0.50;99.90;;;;;;4993812;28;20470;-71
2024/01/15 00:07:57;;;;;;;16.10;10.47;;;-0.50;99.90;;;;;;4993738;28;20176;-71
2024/01/15 00:10:23;;;;;;;18.70;9.67;;;-0.50;99.90;;;;;;4994629;28;20203;-71
2024/01/15 00:12:49;;;;;;;19.20;10.13;;;-0.50;99.90;;;;;;4994525;28;20191;-71
2024/01/15 00:15:14;;;;;;;17.33;10.00;;;-0.50;99.90;;;;;;4994439;28;20438;-71
2024/01/15 00:17:40;;;;;;;17.90;10.40;;;-0.50;99.90;;;;;;4997524;28;20180;-71
2024/01/15 00:20:06;;;;;;;19.20;10.60;;;-0.50;99.90;;;;;;4996552;28;20196;-71
2024/01/15 00:22:32;;;;;;;19.77;10.37;;;-0.50;99.90;;;;;;4995646;28;20203;-72
2024/01/15 00:24:58;;;;;;;19.60;10.70;;;-0.50;99.90;;;;;;4996973;28;20529;-72
2024/01/15 00:27:23;;;;;;;17.87;10.07;;;-0.50;99.90;;;;;;4998212;28;20215;-71
2024/01/15 00:29:50;;;;;;;20.77;10.03;;;-0.60;99.90;;;;;;4998500;28;20223;-71
2024/01/15 00:32:16;;;;;;;20.93;11.37;;;-0.60;99.90;;;;;;4991572;28;20175;-71
2024/01/15 00:34:41;;;;;;;19.20;10.07;;;-0.80;99.90;;;;;;4998658;28;21002;-71
2024/01/15 00:37:07;;;;;;;17.50;9.10;;;-0.80;99.90;;;;;;4998368;28;20175;-71
2024/01/15 00:39:33;;;;;;;19.83;8.47;;;-0.90;99.90;;;;;;4997989;28;20250;-72
2024/01/15 00:41:58;;;;;;;17.60;9.13;;;-0.90;99.90;;;;;;4990901;28;20669;-71
2024/01/15 00:44:24;;;;;;;18.30;9.07;;;-1.00;99.90;;;;;;4998887;28;20641;-71
2024/01/15 00:46:49;;;;;;;21.00;10.07;;;-1.00;99.90;;;;;;4998376;28;20176;-71
2024/01/15 00:49:15;;;;;;;19.97;10.40;;;-1.10;99.90;;;;;;4998109;28;20292;-71
2024/01/15 00:51:40;;;;;;;18.83;10.37;;;-1.10;99.90;;;;;;4997615;28;20175;-71
2024/01/15 00:54:06;;;;;;;14.10;8.40;;;-1.10;99.90;;;;;;4984177;28;20180;-71
2024/01/15 00:56:32;;;;;;;11.90;7.67;;;-1.20;99.90;;;;;;4992658;28;20270;-72
2024/01/15 00:58:57;;;;;;;14.17;8.73;;;-1.20;99.90;;;;;;4997921;28;20451;-71
2024/01/15 01:01:23;;;;;;;16.30;9.43;;;-1.20;99.90;;;;;;4997651;28;20279;-72
2024/01/15 01:03:48;;;;;;;19.03;8.80;;;-1.10;99.90;;;;;;4998096;28;20258;-71
2024/01/15 01:06:14;;;;;;;19.97;9.53;;;-1.10;99.90;;;;;;4998047;28;20242;-71
2024/01/15 01:08:39;;;;;;;15.60;8.90;;;-1.00;99.90;;;;;;4997846;28;20179;-72
2024/01/15 01:11:06;;;;;;;19.07;10.87;;;-1.00;99.90;;;;;;4996447;28;20254;-71
2024/01/15 01:13:32;;;;;;;21.33;10.40;;;-0.90;99.90;;;;;;4992720;28;20198;-71
2024/01/15 01:15:58;;;;;;;15.53;8.20;;;-0.90;99.90;;;;;;4996373;28;20442;-71
2024/01/15 01:18:23;;;;;;;15.80;8.23;;;-0.90;99.90;;;;;;4994680;28;20431;-71
2024/01/15 01:20:49;;;;;;;14.90;8.90;;;-0.80;99.90;;;;;;4997524;28;20199;-71
2024/01/15 01:23:14;;;;;;;25.23;9.97;;;-0.80;99.90;;;;;;4994881;28;20184;-71
2024/01/15 01:25:40;;;;;;;16.30;9.10;;;-0.80;99.90;;;;;;4985446;28;20196;-71
2024/01/15 01:28:06;;;;;;;22.83;9.33;;;-0.80;99.90;;;;;;4988074;28;20532;-71
2024/01/15 01:30:31;;;;;;;20.23;8.83;;;-0.80;99.90;;;;;;4988216;28;20210;-71
2024/01/15 01:32:57;;;;;;;15.83;8.57;;;-0.80;99.90;;;;;;4994887;28;20186;-71
2024/01/15 01:35:22;;;;;;;18.57;9.93;;;-0.80;99.90;;;;;;4997216;28;20597;-71
2024/01/15 01:37:48;;;;;;;16.73;7.67;;;-0.80;99.90;;;;;;4996739;28;20673;-72
2024/01/15 01:40:14;;;;;;;18.10;9.87;;;-0.90;99.90;;;;;;4997634;28;20450;-72
2024/01/15 01:42:39;;;;;;;19.40;9.83;;;-0.90;99.90;;;;;;4996550;28;20239;-73
2024/01/15 01:45:05;;;;;;;15.33;9.80;;;-0.80;99.90;;;;;;4995835;28;20185;-71
2024/01/15 01:47:32;;;;;;;18.00;10.40;;;-0.90;99.90;;;;;;4998096;28;20206;-71
2024/01/15 01:49:57;;;;;;;17.60;8.53;;;-0.80;99.90;;;;;;4996451;28;20454;-71
2024/01/15 01:52:23;;;;;;;18.53;9.97;;;-0.80;99.90;;;;;;4993860;28;20427;-71
2024/01/15 01:54:49;;;;;;;13.63;9.10;;;-0.80;99.90;;;;;;4997260;28;20666;-71
2024/01/15 01:57:16;;;;;;;19.30;10.13;;;-0.80;99.90;;;;;;4995401;28;20614;-70
2024/01/15 01:59:42;;;;;;;15.60;8.13;;;-0.80;99.90;;;;;;4993390;28;20204;-71
2024/01/15 02:02:07;;;;;;;18.93;9.03;;;-0.70;99.90;;;;;;4996210;28;20462;-70
2024/01/15 02:04:33;;;;;;;20.60;9.10;;;-0.70;99.90;;;;;;4983630;28;20234;-71
2024/01/15 02:07:00;;;;;;;11.53;7.00;;;-0.70;99.90;;;;;;4995052;28;20558;-73
2024/01/15 02:09:25;;;;;;;14.53;8.10;;;-0.80;99.90;;;;;;4989770;28;20196;-72
2024/01/15 02:11:51;;;;;;;14.83;7.37;;;-0.80;99.90;;;;;;4997547;28;20465;-73
2024/01/15 02:14:17;;;;;;;13.87;8.20;;;-0.80;99.90;;;;;;4996830;28;20179;-72
2024/01/15 02:16:43;;;;;;;16.80;8.13;;;-0.90;99.90;;;;;;4987800;28;20202;-70
2024/01/15 02:19:15;;;;;;;19.10;10.10;;;-0.90;99.90;;;;;;4979426;28;20546;-73
2024/01/15 02:21:41;;;;;;;17.30;7.67;;;-0.90;99.90;;;;;;4977549;28;20199;-71
2024/01/15 02:24:06;;;;;;;16.27;8.77;;;-0.90;99.90;;;;;;4986584;28;20948;-71
2024/01/15 02:26:35;;;;;;;15.20;7.90;;;-0.90;99.90;;;;;;4997667;28;20168;-71
2024/01/15 02:29:01;;;;;;;17.07;8.47;;;-0.90;99.90;;;;;;4982980;28;20188;-71
2024/01/15 02:31:27;;;;;;;19.80;8.53;;;-0.90;99.90;;;;;;4988208;28;20449;-71
2024/01/15 02:33:52;;;;;;;20.40;10.17;;;-1.00;99.90;;;;;;4978581;28;20180;-71
2024/01/15 02:36:18;;;;;;;16.67;8.80;;;-1.00;99.90;;;;;;4993127;28;20611;-71
2024/01/15 02:38:43;;;;;;;12.73;8.20;;;-1.00;99.90;;;;;;4996411;28;20175;-71
2024/01/15 02:41:09;;;;;;;17.67;7.73;;;-1.00;99.90;;;;;;4994437;28;20693;-70
2024/01/15 02:43:34;;;;;;;12.23;7.20;;;-1.00;99.90;;;;;;4987361;28;20193;-71
2024/01/15 02:46:00;;;;;;;18.33;8.93;;;-1.00;99.90;;;;;;4991525;28;20175;-71
2024/01/15 02:48:25;;;;;;;13.53;8.00;;;-1.00;99.90;;;;;;4979010;28;20184;-70
2024/01/15 02:50:51;;;;;;;18.20;11.50;;;-1.00;99.90;;;;;;4983382;28;20206;-71
2024/01/15 02:53:16;;;;;;;14.87;8.90;;;-1.00;99.90;;;;;;4989798;28;20180;-71
2024/01/15 02:55:42;;;;;;;18.13;9.10;;;-1.00;99.90;;;;;;4983173;28;20704;-71
2024/01/15 02:58:07;;;;;;;13.30;8.13;;;-1.00;99.90;;;;;;4991243;28;20651;-71
2024/01/15 03:00:33;;;;;;;17.77;9.10;;;-1.00;99.90;;;;;;4991446;28;20203;-71
2024/01/15 03:02:58;;;;;;;15.90;8.20;;;-1.00;99.90;;;;;;4985065;28;20235;-71
2024/01/15 03:05:24;;;;;;;11.40;7.80;;;-1.10;99.90;;;;;;4992887;28;20194;-71
2024/01/15 03:07:50;;;;;;;18.13;8.70;;;-1.00;99.90;;;;;;4992418;28;20191;-71
2024/01/15 03:10:15;;;;;;;15.47;9.23;;;-1.10;99.90;;;;;;4981203;28;20230;-71
2024/01/15 03:12:41;;;;;;;15.93;9.30;;;-1.10;99.90;;;;;;4973654;28;20599;-71
2024/01/15 03:15:06;;;;;;;17.23;8.43;;;-1.10;99.90;;;;;;4979618;28;20188;-70
2024/01/15 03:17:32;;;;;;;16.40;7.90;;;-1.10;99.90;;;;;;4987698;28;20230;-71
2024/01/15 03:19:57;;;;;;;13.17;7.87;;;-1.10;99.90;;;;;;4992260;28;20735;-71
2024/01/15 03:22:23;;;;;;;17.60;8.80;;;-1.20;99.90;;;;;;4991681;28;20293;-71
2024/01/15 03:24:48;;;;;;;16.90;9.50;;;-1.20;99.90;;;;;;4992592;28;20195;-70
2024/01/15 03:27:14;;;;;;;16.90;8.27;;;-1.20;99.90;;;;;;4992586;28;20171;-70
2024/01/15 03:29:40;;;;;;;16.20;7.73;;;-1.10;99.90;;;;;;4991991;28;20258;-71
2024/01/15 03:32:06;;;;;;;17.00;8.27;;;-1.10;99.90;;;;;;4988431;28;20234;-71
2024/01/15 03:34:32;;;;;;;14.43;9.20;;;-1.10;99.90;;;;;;4983674;28;20419;-70
2024/01/15 03:36:58;;;;;;;14.17;8.80;;;-1.00;99.90;;;;;;4990574;28;20442;-75
2024/01/15 03:39:24;;;;;;;17.67;9.30;;;-1.00;99.90;;;;;;4987779;28;20216;-71
2024/01/15 03:41:49;;;;;;;17.77;8.43;;;-1.00;99.90;;;;;;4988591;28;20469;-71
2024/01/15 03:44:15;;;;;;;15.27;8.67;;;-0.90;99.90;;;;;;4980147;28;20230;-71
2024/01/15 03:46:40;;;;;;;16.40;9.30;;;-0.90;99.90;;;;;;4992463;28;20524;-71
2024/01/15 03:49:06;;;;;;;11.53;7.37;;;-0.90;99.90;;;;;;4992470;28;20191;-71
2024/01/15 03:51:31;;;;;;;14.90;9.07;;;-0.90;99.90;;;;;;4992582;28;20226;-70
2024/01/15 03:53:57;;;;;;;18.10;9.27;;;-0.80;99.90;;;;;;4996666;28;20680;-71
2024/01/15 03:56:22;;;;;;;21.30;10.00;;;-0.80;99.90;;;;;;4996391;28;20175;-71
2024/01/15 03:58:48;;;;;;;16.03;8.30;;;-0.80;99.90;;;;;;4994770;28;20261;-70
2024/01/15 04:01:13;;;;;;;12.77;7.60;;;-0.80;99.90;;;;;;4994710;28;20657;-70
2024/01/15 04:03:39;;;;;;;10.57;7.03;;;-0.70;99.90;;;;;;4995139;28;20184;-70
2024/01/15 04:06:04;;;;;;;16.93;7.83;;;-0.70;99.90;;;;;;4995160;28;20650;-71
2024/01/15 04:08:30;;;;;;;11.60;7.23;;;-0.70;99.90;;;;;;4994458;28;20230;-71
2024/01/15 04:10:56;;;;;;;12.50;7.00;;;-0.60;99.90;;;;;;4994904;28;20196;-71
2024/01/15 04:13:21;;;;;;;17.70;9.63;;;-0.60;99.90;;;;;;4991584;28;20640;-71
2024/01/15 04:15:47;;;;;;;14.37;7.47;;;-0.50;99.90;;;;;;4990927;28;20179;-71
2024/01/15 04:18:13;;;;;;;13.13;7.80;;;-0.50;99.90;;;;;;4986973;28;20258;-71
2024/01/15 04:20:38;;;;;;;12.50;7.40;;;-0.40;99.90;;;;;;4992232;28;20211;-71
2024/01/15 04:23:04;;;;;;;12.00;7.43;;;-0.40;99.90;;;;;;4995539;28;20230;-71
2024/01/15 04:25:30;;;;;;;15.43;8.13;;;-0.30;99.90;;;;;;4995985;28;20179;-70
2024/01/15 04:27:56;;;;;;;12.73;7.67;;;-0.30;99.90;;;;;;4995533;28;20423;-70
2024/01/15 04:30:21;;;;;;;9.80;7.30;;;-0.20;99.90;;;;;;4995143;28;20282;-71
2024/01/15 04:32:47;;;;;;;14.83;7.83;;;-0.20;99.90;;;;;;4986923;28;20224;-71
2024/01/15 04:35:12;;;;;;;13.00;7.77;;;-0.20;99.90;;;;;;4994102;28;20696;-70
2024/01/15 04:37:39;;;;;;;14.70;8.03;;;-0.20;99.90;;;;;;4993400;28;20212;-71
2024/01/15 04:40:05;;;;;;;15.77;9.20;;;-0.20;99.90;;;;;;4987191;28;20239;-71
2024/01/15 04:42:30;;;;;;;13.33;8.23;;;-0.10;99.90;;;;;;4994066;28;20517;-71
2024/01/15 04:44:56;;;;;;;15.03;8.60;;;-0.10;99.90;;;;;;4994733;28;20522;-71
2024/01/15 04:47:21;;;;;;;18.60;7.97;;;-0.10;99.90;;;;;;4988677;28;20270;-70
2024/01/15 04:49:48;;;;;;;13.07;7.83;;;-0.10;99.90;;;;;;4995238;28;20595;-70
2024/01/15 04:52:14;;;;;;;12.00;7.27;;;-0.10;99.90;;;;;;4994860;28;20270;-71
2024/01/15 04:54:40;;;;;;;16.70;8.83;;;-0.10;99.90;;;;;;4995397;28;20465;-71
2024/01/15 04:57:05;;;;;;;18.07;8.83;;;-0.10;99.90;;;;;;4994999;28;20172;-71
2024/01/15 04:59:31;;;;;;;11.13;8.20;;;-0.10;99.90;;;;;;4995466;28;20187;-71
2024/01/15 05:01:57;;;;;;;19.80;10.33;;;-0.10;99.90;;;;;;4992980;28;20204;-71
2024/01/15 05:04:24;;;;;;;17.50;9.10;;;-0.10;99.90;;;;;;4987571;28;20176;-71
2024/01/15 05:06:49;;;;;;;14.40;9.90;;;-0.10;99.90;;;;;;4993905;28;20172;-71
2024/01/15 05:09:15;;;;;;;17.60;10.47;;;-0.10;99.90;;;;;;4992654;28;20501;-71
2024/01/15 05:11:40;;;;;;;19.00;9.57;;;-0.10;99.90;;;;;;4994781;28;20637;-71
2024/01/15 05:14:06;;;;;;;17.47;9.37;;;-0.10;99.90;;;;;;4995130;28;20183;-71
2024/01/15 05:16:31;;;;;;;19.40;8.50;;;-0.10;99.90;;;;;;4989960;28;20176;-71
2024/01/15 05:18:57;;;;;;;22.77;9.73;;;-0.10;99.90;;;;;;4990934;28;20191;-71
2024/01/15 05:21:22;;;;;;;14.20;8.97;;;-0.10;99.90;;;;;;4990328;28;20208;-70
2024/01/15 05:23:48;;;;;;;17.03;9.90;;;-0.10;99.90;;;;;;4983627;28;20263;-71
2024/01/15 05:26:13;;;;;;;19.33;11.20;;;-0.10;99.90;;;;;;4993866;28;20226;-71
2024/01/15 05:28:42;;;;;;;16.40;8.50;;;-0.10;99.90;;;;;;4990941;28;20176;-71
2024/01/15 05:31:08;;;;;;;16.67;9.37;;;-0.10;99.90;;;;;;4983036;28;20183;-71
2024/01/15 05:33:33;;;;;;;13.10;7.20;;;-0.10;99.90;;;;;;4986049;28;20957;-71
2024/01/15 05:35:59;;;;;;;15.57;8.60;;;0.00;99.90;;;;;;4985865;28;21622;-71
2024/01/15 05:38:24;;;;;;;16.03;10.10;;;-0.10;99.90;;;;;;4975070;28;20221;-71
2024/01/15 05:40:50;;;;;;;18.37;8.60;;;-0.10;99.90;;;;;;4978148;28;20246;-71
2024/01/15 05:43:15;;;;;;;14.03;9.87;;;-0.10;99.90;;;;;;4991291;28;20192;-71
2024/01/15 05:45:44;;;;;;;15.03;9.73;;;0.00;99.90;;;;;;4977183;28;21138;-70
2024/01/15 05:48:10;;;;;;;17.13;9.87;;;0.00;99.90;;;;;;4988975;28;20185;-71
2024/01/15 05:50:35;;;;;;;18.43;10.70;;;0.00;99.90;;;;;;4986332;28;20877;-71
2024/01/15 05:53:02;;;;;;;14.10;9.33;;;-0.10;99.90;;;;;;4994398;28;20252;-71
2024/01/15 05:55:28;;;;;;;12.70;7.97;;;0.00;99.90;;;;;;4993657;28;20168;-71
2024/01/15 05:57:53;;;;;;;15.17;10.13;;;0.00;99.90;;;;;;4993179;28;20439;-70
2024/01/15 06:00:19;;;;;;;11.43;8.43;;;-0.10;99.90;;;;;;4981568;28;20200;-71
2024/01/15 06:02:45;;;;;;;15.47;8.20;;;0.00;99.90;;;;;;4992595;28;20209;-71
2024/01/15 06:05:10;;;;;;;16.60;7.80;;;0.00;99.90;;;;;;4993785;28;20247;-71
2024/01/15 06:07:36;;;;;;;14.20;7.90;;;0.00;99.90;;;;;;4992962;28;20234;-71
2024/01/15 06:10:02;;;;;;;15.67;8.00;;;0.00;99.90;;;;;;4993747;28;20191;-71
2024/01/15 06:12:28;;;;;;;14.50;7.73;;;0.00;99.90;;;;;;4994230;28;20510;-71
2024/01/15 06:14:53;;;;;;;15.73;7.70;;;0.00;99.90;;;;;;4991958;28;20184;-71
2024/01/15 06:17:19;;;;;;;16.20;9.57;;;0.00;99.90;;;;;;4991918;28;20446;-71
2024/01/15 06:19:44;;;;;;;22.13;9.53;;;0.00;99.90;;;;;;4989187;28;20195;-71
2024/01/15 06:22:10;;;;;;;13.13;7.77;;;0.00;99.90;;;;;;4993766;28;20219;-69
2024/01/15 06:24:36;;;;;;;10.30;7.20;;;0.00;99.90;;;;;;4993707;28;20258;-69
2024/01/15 06:27:01;;;;;;;9.10;7.50;;;0.00;99.90;;;;;;4993669;28;20172;-69
2024/01/15 06:29:28;;;;;;;15.83;7.50;;;0.00;99.90;;;;;;4989478;28;20200;-69
2024/01/15 06:31:54;;;;;;;17.70;8.80;;;0.00;99.90;;;;;;4983874;28;20184;-69
2024/01/15 06:34:19;;;;;;;15.53;8.10;;;0.00;99.90;;;;;;4980762;28;20904;-69
2024/01/15 06:36:45;;;;;;;15.80;8.97;;;0.00;99.90;;;;;;4993211;28;20175;-68
2024/01/15 06:39:10;;;;;;;13.13;7.80;;;0.00;99.90;;;;;;4991912;28;20203;-71
2024/01/15 06:41:43;;;;;;;11.63;7.63;;;0.00;99.90;;;;;;4993271;28;20290;-71
2024/01/15 06:44:12;;;;;;;12.17;6.90;;;0.00;99.90;;;;;;4993400;28;20684;-71
2024/01/15 06:46:42;;;;;;;10.43;7.20;;;0.00;99.90;;;;;;4992963;28;20454;-70
2024/01/15 06:49:08;;;;;;;16.03;8.77;;;0.00;99.90;;;;;;4977048;28;20453;-70
2024/01/15 06:51:33;;;;;;;14.50;8.57;;;0.00;99.90;;;;;;4993215;28;20422;-70
2024/01/15 06:53:59;;;;;;;15.13;8.00;;;0.00;99.90;;;;;;4993074;28;20182;-70
2024/01/15 06:56:24;;;;;;;12.60;7.70;;;0.00;99.90;;;;;;4993064;28;20230;-70
2024/01/15 06:58:50;;;;;;;13.63;7.33;;;0.00;99.90;;;;;;4993015;28;20183;-70
2024/01/15 07:01:15;;;;;;;14.53;7.60;;;0.10;99.90;;;;;;4992988;28;20199;-70
2024/01/15 07:03:41;;;;;;;8.93;7.40;;;0.10;99.90;;;;;;4992929;28;20187;-70
2024/01/15 07:06:06;;;;;;;12.10;7.97;;;0.10;99.90;;;;;;4992876;28;20222;-70
2024/01/15 07:08:32;;;;;;;17.00;7.50;;;0.10;99.90;;;;;;4992665;28;20214;-70
2024/01/15 07:10:57;;;;;;;13.83;6.57;;;0.10;99.90;;;;;;4992936;28;20275;-70
2024/01/15 07:13:23;;;;;;;14.37;7.50;;;0.10;99.90;;;;;;4993100;28;20214;-70
2024/01/15 07:15:48;;;;;;;16.50;9.00;;;0.10;99.90;;;;;;4992962;28;20259;-70
2024/01/15 07:18:14;;;;;;;15.00;8.90;;;0.10;99.90;;;;;;4992410;28;20180;-70
2024/01/15 07:20:39;;;;;;;10.67;7.60;;;0.10;99.90;;;;;;4992521;28;20199;-70
2024/01/15 07:23:05;;;;;;;11.00;7.10;;;0.10;99.90;;;;;;4992721;28;20586;-70
2024/01/15 07:25:30;;;;;;;20.40;8.50;;;0.10;99.90;;;;;;4992734;28;20167;-70
2024/01/15 07:27:56;;;;;;;12.07;7.90;;;0.10;99.90;;;;;;4992566;28;20182;-70
2024/01/15 07:30:21;;;;;;;14.57;8.20;;;0.10;99.90;;;;;;4992506;28;20218;-71
2024/01/15 07:32:47;;;;;;;13.20;8.73;;;0.10;99.90;;;;;;4980930;28;20546;-70
2024/01/15 07:35:15;;;;;;;14.50;7.60;;;0.10;99.90;;;;;;4982917;28;20667;-70
2024/01/15 07:37:41;;;;;;;14.43;8.67;;;0.10;99.90;;;;;;4992128;28;20190;-70
2024/01/15 07:40:08;;;;;;;14.13;7.50;;;0.10;99.90;;;;;;4992444;28;20457;-70
2024/01/15 07:42:34;;;;;;;14.37;8.00;;;0.10;99.90;;;;;;4992588;28;20195;-71
2024/01/15 07:45:00;;;;;;;11.30;7.40;;;0.20;99.90;;;;;;4992561;28;20570;-70
2024/01/15 07:47:26;;;;;;;14.17;7.73;;;0.20;99.90;;;;;;4992299;28;20419;-70
2024/01/15 07:49:52;;;;;;;13.77;7.50;;;0.20;99.90;;;;;;4992294;28;20447;-70
2024/01/15 07:52:18;;;;;;;14.80;7.60;;;0.20;99.90;;;;;;4991248;28;20435;-71
2024/01/15 07:54:44;;;;;;;10.70;6.40;;;0.20;99.90;;;;;;4991987;28;20429;-71
2024/01/15 07:57:10;;;;;;;10.80;6.97;;;0.30;99.90;;;;;;4978885;28;20179;-72
2024/01/15 07:59:35;;;;;;;12.47;8.20;;;0.30;99.90;;;;;;4992472;28;20217;-72
2024/01/15 08:02:01;;;;;;;9.80;7.57;;;0.30;99.90;;;;;;4991600;28;20470;-72
2024/01/15 08:04:27;;;;;;;13.10;7.33;;;0.40;99.90;;;;;;4973792;28;20187;-71
2024/01/15 08:06:53;;;;;;;14.30;7.53;;;0.40;99.90;;;;;;4989526;28;20263;-71
2024/01/15 08:09:18;;;;;;;12.40;6.73;;;0.40;99.90;;;;;;4992217;28;20194;-70
2024/01/15 08:11:44;;;;;;;14.87;7.60;;;0.50;99.90;;;;;;4992305;28;20496;-71
2024/01/15 08:14:10;;;;;;;11.87;6.77;;;0.50;99.90;;;;;;4992301;28;20180;-71
2024/01/15 08:16:37;;;;;;;13.53;7.70;;;0.50;99.90;;;;;;4992082;28;20207;-71
2024/01/15 08:19:03;;;;;;;9.37;6.70;;;0.50;99.90;;;;;;4991860;28;20483;-71
2024/01/15 08:21:29;;;;;;;13.57;7.47;;;0.40;99.90;;;;;;4991994;28;20466;-71
2024/01/15 08:23:56;;;;;;;14.50;7.40;;;0.50;99.90;;;;;;4992179;28;20539;-71
2024/01/15 08:26:22;;;;;;;12.03;6.60;;;0.50;99.90;;;;;;4992077;28;20433;-71
2024/01/15 08:28:48;;;;;;;10.77;6.20;;;0.50;99.90;;;;;;4991996;28;20414;-70
2024/01/15 08:31:13;;;;;;;10.07;6.40;;;0.60;99.90;;;;;;4992182;28;20585;-71
2024/01/15 08:33:39;;;;;;;14.73;8.03;;;0.60;99.90;;;;;;4992026;28;20784;-70
2024/01/15 08:36:05;;;;;;;12.93;7.90;;;0.60;99.90;;;;;;4991686;28;20187;-70
2024/01/15 08:38:31;;;;;;;13.30;8.27;;;0.70;99.90;;;;;;4994249;28;20176;-70
2024/01/15 08:40:58;;;;;;;17.33;6.33;;;0.70;99.90;;;;;;4996047;28;20470;-70
2024/01/15 08:43:24;;;;;;;14.70;6.97;;;0.70;99.90;;;;;;4995620;28;20163;-69
2024/01/15 08:45:50;;;;;;;10.33;6.97;;;0.80;99.90;;;;;;4995570;28;20429;-70
2024/01/15 08:48:16;;;;;;;10.47;6.40;;;0.90;99.90;;;;;;4994813;28;20168;-70
2024/01/15 08:50:42;;;;;;;9.13;6.00;;;1.00;99.90;;;;;;4995241;28;20450;-70
2024/01/15 08:53:07;;;;;;;11.67;6.30;;;1.10;99.90;;;;;;4995369;28;20513;-70
2024/01/15 08:55:33;;;;;;;9.00;5.37;;;1.20;99.90;;;;;;4995395;28;20575;-70
2024/01/15 08:57:59;;;;;;;12.03;7.50;;;1.20;99.90;;;;;;4994209;28;20267;-70
2024/01/15 09:00:24;;;;;;;8.57;6.20;;;1.20;99.90;;;;;;4995113;28;20199;-70
2024/01/15 09:02:50;;;;;;;12.80;6.40;;;1.20;99.90;;;;;;4995225;28;20286;-70
2024/01/15 09:05:15;;;;;;;9.87;5.40;;;1.20;99.90;;;;;;4994849;28;20254;-70
2024/01/15 09:07:41;;;;;;;8.80;5.77;;;1.30;99.90;;;;;;4995091;28;20254;-69
2024/01/15 09:10:07;;;;;;;7.80;4.97;;;1.30;99.90;;;;;;4995090;28;20192;-70
2024/01/15 09:12:32;;;;;;;7.97;4.30;;;1.30;99.90;;;;;;4994966;28;20262;-69
2024/01/15 09:14:58;;;;;;;8.13;4.60;;;1.30;99.90;;;;;;4995043;28;20251;-69
2024/01/15 09:17:23;;;;;;;6.10;4.90;;;1.30;99.90;;;;;;4994771;28;20176;-69
2024/01/15 09:19:49;;;;;;;11.87;5.90;;;1.40;99.90;;;;;;4994545;28;20200;-69
2024/01/15 09:22:18;;;;;;;8.67;5.40;;;1.40;99.90;;;;;;4994864;28;20210;-70
2024/01/15 09:24:44;;;;;;;8.00;5.13;;;1.40;99.90;;;;;;4994935;28;20430;-69
2024/01/15 09:27:09;;;;;;;6.77;4.60;;;1.50;99.90;;;;;;4994674;28;20415;-70
2024/01/15 09:29:37;;;;;;;7.00;4.87;;;1.40;99.90;;;;;;4994763;28;20438;-70
2024/01/15 09:32:03;;;;;;;7.87;4.87;;;1.40;99.90;;;;;;4994736;28;20182;-69
2024/01/15 09:34:29;;;;;;;8.50;5.33;;;1.40;99.90;;;;;;4994059;28;20430;-69
2024/01/15 09:36:55;;;;;;;10.30;5.13;;;1.50;99.90;;;;;;4994346;28;20422;-70
2024/01/15 09:39:21;;;;;;;8.80;4.90;;;1.50;99.90;;;;;;4994437;28;20219;-70
2024/01/15 09:41:47;;;;;;;6.70;4.73;;;1.50;99.90;;;;;;4994620;28;20195;-70
2024/01/15 09:44:14;;;;;;;11.77;4.97;;;1.60;99.90;;;;;;4994527;28;20505;-69
2024/01/15 09:46:41;;;;;;;6.17;4.80;;;1.60;99.90;;;;;;4994113;28;20426;-70
2024/01/15 09:49:06;;;;;;;8.57;5.50;;;1.60;99.90;;;;;;4989604;28;20455;-69
2024/01/15 09:51:32;;;;;;;6.40;4.77;;;1.60;99.90;;;;;;4985523;28;20960;-70
2024/01/15 09:53:58;;;;;;;8.20;5.00;;;1.80;99.90;;;;;;4977395;28;20312;-70
2024/01/15 09:56:24;;;;;;;8.50;5.60;;;1.80;99.90;;;;;;4973597;28;20423;-70
2024/01/15 09:58:52;;;;;;;11.27;5.70;;;1.80;99.90;;;;;;4976483;28;20188;-69
2024/01/15 10:01:20;;;;;;;8.67;4.97;;;1.80;99.90;;;;;;4974463;28;20462;-70
2024/01/15 10:03:46;;;;;;;8.37;5.30;;;1.80;99.90;;;;;;4992822;28;20426;-69
2024/01/15 10:06:17;;;;;;;6.93;4.37;;;1.70;99.90;;;;;;4993749;28;20513;-69
2024/01/15 10:08:46;;;;;;;9.40;5.00;;;1.80;99.90;;;;;;4993670;28;20763;-69
2024/01/15 10:11:11;;;;;;;11.57;5.30;;;1.80;99.90;;;;;;4993736;28;20798;-69
2024/01/15 10:13:37;;;;;;;8.40;6.50;;;1.80;99.90;;;;;;4993876;28;20497;-69
2024/01/15 10:16:03;;;;;;;8.20;5.30;;;1.90;99.90;;;;;;4993664;28;20677;-69
2024/01/15 10:18:29;;;;;;;11.50;5.57;;;1.80;99.90;;;;;;4993196;28;20435;-69
2024/01/15 10:20:57;;;;;;;9.93;4.87;;;1.80;99.90;;;;;;4993644;28;20533;-70
2024/01/15 10:23:23;;;;;;;9.67;4.87;;;1.90;99.90;;;;;;4993544;28;20975;-70
2024/01/15 10:25:49;;;;;;;8.33;4.97;;;1.90;99.90;;;;;;4993537;28;20506;-69
2024/01/15 10:28:14;;;;;;;6.50;4.80;;;1.90;99.90;;;;;;4993141;28;20514;-69
2024/01/15 10:30:40;;;;;;;5.63;5.10;;;1.80;99.90;;;;;;4993329;28;20192;-69
2024/01/15 10:33:05;;;;;;;5.97;4.17;;;1.80;99.90;;;;;;4993147;28;20299;-70
2024/01/15 10:35:33;;;;;;;5.67;4.53;;;1.80;99.90;;;;;;4993440;28;20175;-69
2024/01/15 10:37:59;;;;;;;6.00;4.90;;;1.80;99.90;;;;;;4992204;28;20183;-69
2024/01/15 10:40:25;;;;;;;6.80;4.93;;;1.90;99.90;;;;;;4993169;28;20457;-70
2024/01/15 10:42:51;;;;;;;8.40;5.90;;;1.90;99.90;;;;;;4993196;28;20856;-70
2024/01/15 10:45:17;;;;;;;9.17;4.83;;;1.90;99.90;;;;;;4986962;28;20440;-69
2024/01/15 10:47:43;;;;;;;7.50;4.20;;;2.00;99.90;;;;;;4985698;28;20187;-73
2024/01/15 10:50:10;;;;;;;8.27;5.53;;;1.90;99.90;;;;;;4974422;28;20450;-73
2024/01/15 10:52:36;;;;;;;10.47;5.40;;;2.00;99.90;;;;;;4973921;28;20905;-70
2024/01/15 10:55:04;;;;;;;8.70;5.03;;;1.90;99.90;;;;;;4990776;28;20572;-72
2024/01/15 10:57:30;;;;;;;7.10;4.63;;;1.90;99.90;;;;;;4992917;28;20427;-72
2024/01/15 10:59:56;;;;;;;10.10;6.03;;;2.00;99.90;;;;;;4992612;28;20943;-71
2024/01/15 11:02:22;;;;;;;9.90;6.57;;;2.00;99.90;;;;;;5007792;28;20242;-72
2024/01/15 11:04:47;;;;;;;6.93;5.07;;;2.00;99.90;;;;;;4992384;28;20604;-72
2024/01/15 11:07:13;;;;;;;7.43;5.30;;;2.10;99.90;;;;;;4989477;28;20443;-74
2024/01/15 11:09:39;;;;;;;7.97;5.90;;;2.10;99.90;;;;;;4992846;28;20668;-74
2024/01/15 11:12:11;;;;;;;9.00;4.53;;;2.10;99.90;;;;;;4991597;28;20437;-73
2024/01/15 11:14:44;;;;;;;8.43;5.27;;;2.00;99.90;;;;;;4992922;28;20254;-73
2024/01/15 11:17:10;;;;;;;7.60;5.67;;;2.00;99.90;;;;;;4992711;28;20429;-75
2024/01/15 11:19:50;;;;;;;8.57;5.30;;;1.90;99.90;;;;;;4991657;28;20454;-74
2024/01/15 11:22:30;;;;;;;6.27;4.43;;;2.00;99.90;;;;;;4992804;28;20533;-74
2024/01/15 11:25:18;;;;;;;6.80;5.27;;;1.80;99.90;;;;;;4992615;28;20934;-74
2024/01/15 11:27:51;;;;;;;9.27;5.07;;;1.90;99.90;;;;;;4992584;28;20943;-74
2024/01/15 11:30:17;;;;;;;8.70;5.53;;;1.90;99.90;;;;;;4988438;28;20454;-75
2024/01/15 11:32:43;;;;;;;8.23;5.37;;;2.00;99.90;;;;;;4989114;28;20468;-75
2024/01/15 11:35:13;;;;;;;6.83;4.87;;;2.00;99.90;;;;;;4992513;28;20433;-75
2024/01/15 11:37:51;;;;;;;6.87;5.43;;;1.80;99.90;;;;;;4992262;28;20207;-75
2024/01/15 11:40:43;;;;;;;8.50;4.70;;;1.90;99.90;;;;;;4992312;28;20475;-74
2024/01/15 11:43:09;;;;;;;10.93;5.60;;;1.90;99.90;;;;;;4985983;28;20467;-76
2024/01/15 11:45:35;;;;;;;8.77;6.30;;;1.80;99.90;;;;;;4991987;28;20426;-75
2024/01/15 11:48:12;;;;;;;6.40;5.00;;;1.70;99.90;;;;;;5007280;28;20803;-76
2024/01/15 11:50:46;;;;;;;13.37;6.90;;;1.70;99.90;;;;;;4992412;28;20438;-75
2024/01/15 11:53:32;;;;;;;9.13;5.27;;;1.70;99.90;;;;;;4992400;28;20423;-73
2024/01/15 11:56:01;;;;;;;11.03;5.77;;;1.70;99.90;;;;;;4992311;28;20843;-75
2024/01/15 11:58:26;;;;;;;10.10;5.30;;;1.70;99.90;;;;;;4992124;28;20541;-75
2024/01/15 12:00:52;;;;;;;10.83;6.57;;;1.60;99.90;;;;;;4990883;28;20968;-73
2024/01/15 12:03:21;;;;;;;10.30;6.30;;;1.60;99.90;;;;;;4992284;28;20180;-75
2024/01/15 12:05:47;;;;;;;12.37;7.47;;;1.60;99.90;;;;;;4992386;28;20442;-74
2024/01/15 12:08:12;;;;;;;6.50;5.23;;;1.60;99.90;;;;;;4991525;28;20431;-74
2024/01/15 12:10:40;;;;;;;9.77;5.87;;;1.60;99.90;;;;;;4992074;28;20199;-75
2024/01/15 12:13:13;;;;;;;11.03;6.67;;;1.70;99.90;;;;;;4994185;28;20251;-74
2024/01/15 12:15:41;;;;;;;9.83;6.13;;;1.60;99.90;;;;;;4995626;28;20430;-75
2024/01/15 12:18:08;;;;;;;10.73;6.10;;;1.50;99.90;;;;;;4995766;28;20481;-75
2024/01/15 12:20:34;;;;;;;9.87;6.50;;;1.40;99.90;;;;;;4980756;28;20847;-75
2024/01/15 12:23:09;;;;;;;9.13;7.47;;;1.30;99.90;;;;;;4976777;28;20467;-75
2024/01/15 12:25:35;;;;;;;7.53;6.50;;;1.20;99.90;;;;;;4981756;28;20461;-73
2024/01/15 12:28:01;;;;;;;8.37;5.83;;;1.20;99.90;;;;;;4995414;28;20419;-75
2024/01/15 12:30:28;;;;;;;11.90;6.53;;;1.10;99.90;;;;;;4995520;28;20450;-74
2024/01/15 12:32:54;;;;;;;11.30;6.47;;;1.10;99.90;;;;;;4995699;28;20191;-75
2024/01/15 12:35:20;;;;;;;10.20;6.90;;;1.00;99.90;;;;;;4992973;28;20924;-74
2024/01/15 12:37:47;;;;;;;10.20;6.73;;;0.90;99.90;;;;;;4994529;28;20437;-74